Aérodrome :
LOGIN :

S'inscrire | Disclaimer

   EN    FR    IT 

 










Légende :    VFR   VFR Marginal   IFR   IFR Intensif   IFR Très Intensif
Visi : 
Plafond : 
>= 8 km
>= 3000ft
5 à 8 km
1000 à 3000 ft
1500m à 5 km
500 à 1000 ft
800 à 1500m
200 à 500 ft
< 800m
< 200 ft
Symboles :   Orages  Brouillard  Fortes neiges  Fortes précipitations  Vent > 20 kt
SIGMETs :   Divers  Orages  Givrage  Turbulence  Onde Orograph.  Cendres Volcan.






- Altitude de l'aérodrome : 183 ft
- Code IATA : HAJ


EDDV - Hanover/Langenhagen Int.

DERNIER METAR :
  • 190250Z 22012KT 9999 BKN028 07/03 Q1009

METARs EXPIRÉS :
  • 190220Z 22013G23KT 190V250 9999 BKN026 07/02 Q1010
  • 190150Z 22012KT 9999 SCT028 BKN047 07/02 Q1011
  • 190120Z 22013KT 180V240 9999 BKN028 07/02 Q1011
  • 190050Z 22013G24KT 190V250 9999 -RA BKN032 07/02 Q1012
  • 190020Z 22014KT 200V260 9999 BKN042 07/02 Q1012

TAF TAF EDDV
Valide du 19 à 00h jusqu'au 20 à 00h UTC


182300Z 1900/1924 23015KT 9999 BKN030
TEMPO 1900/1906 25015G25KT
TEMPO 1903/1905 BKN012
TEMPO 1905/1910 SHRA BKN014CB
BECMG 1907/1909 27015G25KT
TEMPO 1910/1916 28020G30KT
PROB30
TEMPO 1910/1914 SHRA SCT025CB
BECMG 1917/1919 27012KT
BECMG 1923/1924 21008KT



MET'MAP, la Météo Aéronautique d'un coup d'oeil ! - Copyright ORBIFLY Décembre 2007 - Disclaimer

ORBIFLY MET'MAP TEAM :

Programmation & Développement : Alexandra Zaïnal
Sur une idée originale de : Baudouin d'Aumeries
Assistance à la programmation : Marc-Olivier Méhu
Soutien technique & logistique : Manuel Goepfert

Contact : metmap@orbifly.com




SOURCES & CREDITS :

   NOAA